sensor_id;sensor_type;location;lat;lon;timestamp;pressure;altitude;pressure_sealevel;temperature;humidity
77281;BME280;66339;47.262;17.144;2023-02-11T00:00:54;102266.50;;;20.54;36.52
77281;BME280;66339;47.262;17.144;2023-02-11T00:03:24;102259.97;;;20.50;36.48
77281;BME280;66339;47.262;17.144;2023-02-11T00:06:03;102256.09;;;20.46;36.38
77281;BME280;66339;47.262;17.144;2023-02-11T00:08:37;102256.34;;;20.45;36.38
77281;BME280;66339;47.262;17.144;2023-02-11T00:11:12;102261.94;;;20.43;36.36
77281;BME280;66339;47.262;17.144;2023-02-11T00:13:43;102249.78;;;20.41;36.40
77281;BME280;66339;47.262;17.144;2023-02-11T00:16:18;102258.06;;;20.39;36.40
77281;BME280;66339;47.262;17.144;2023-02-11T00:18:47;102242.44;;;20.36;36.43
77281;BME280;66339;47.262;17.144;2023-02-11T00:21:22;102250.72;;;20.34;36.41
77281;BME280;66339;47.262;17.144;2023-02-11T00:23:57;102241.28;;;20.32;36.33
77281;BME280;66339;47.262;17.144;2023-02-11T00:26:30;102248.75;;;20.30;36.49
77281;BME280;66339;47.262;17.144;2023-02-11T00:28:59;102250.84;;;20.28;36.49
77281;BME280;66339;47.262;17.144;2023-02-11T00:31:29;102247.56;;;20.26;36.50
77281;BME280;66339;47.262;17.144;2023-02-11T00:33:59;102245.94;;;20.25;36.45
77281;BME280;66339;47.262;17.144;2023-02-11T00:36:28;102235.66;;;20.22;36.49
77281;BME280;66339;47.262;17.144;2023-02-11T00:39:08;102235.66;;;20.22;36.44
77281;BME280;66339;47.262;17.144;2023-02-11T00:41:35;102230.75;;;20.19;36.42
77281;BME280;66339;47.262;17.144;2023-02-11T00:44:03;102218.38;;;20.18;36.46
77281;BME280;66339;47.262;17.144;2023-02-11T00:46:33;102220.47;;;20.16;36.39
77281;BME280;66339;47.262;17.144;2023-02-11T00:49:01;102221.78;;;20.13;36.51
77281;BME280;66339;47.262;17.144;2023-02-11T00:51:31;102224.66;;;20.11;36.48
77281;BME280;66339;47.262;17.144;2023-02-11T00:53:59;102223.03;;;20.10;36.50
77281;BME280;66339;47.262;17.144;2023-02-11T00:56:26;102217.09;;;20.08;36.50
77281;BME280;66339;47.262;17.144;2023-02-11T00:58:53;102218.94;;;20.08;36.45
77281;BME280;66339;47.262;17.144;2023-02-11T01:01:21;102210.31;;;20.06;36.43
77281;BME280;66339;47.262;17.144;2023-02-11T01:03:51;102215.94;;;20.04;36.50
77281;BME280;66339;47.262;17.144;2023-02-11T01:06:22;102209.97;;;20.02;36.47
77281;BME280;66339;47.262;17.144;2023-02-11T01:08:49;102200.28;;;20.01;36.48
77281;BME280;66339;47.262;17.144;2023-02-11T01:11:18;102200.50;;;20.00;36.42
77281;BME280;66339;47.262;17.144;2023-02-11T01:13:49;102207.72;;;19.99;36.46
77281;BME280;66339;47.262;17.144;2023-02-11T01:16:20;102203.41;;;19.98;36.61
77281;BME280;66339;47.262;17.144;2023-02-11T01:18:48;102196.41;;;19.97;36.47
77281;BME280;66339;47.262;17.144;2023-02-11T01:21:15;102190.44;;;19.95;36.36
77281;BME280;66339;47.262;17.144;2023-02-11T01:24:03;102191.50;;;19.94;36.40
77281;BME280;66339;47.262;17.144;2023-02-11T01:26:30;102173.78;;;19.93;36.40
77281;BME280;66339;47.262;17.144;2023-02-11T01:32:07;102169.69;;;19.91;36.45
77281;BME280;66339;47.262;17.144;2023-02-11T01:34:35;102172.00;;;19.87;36.41
77281;BME280;66339;47.262;17.144;2023-02-11T01:37:06;102173.88;;;19.86;36.38
77281;BME280;66339;47.262;17.144;2023-02-11T01:39:34;102161.50;;;19.85;36.46
77281;BME280;66339;47.262;17.144;2023-02-11T01:42:09;102168.16;;;19.83;36.35
77281;BME280;66339;47.262;17.144;2023-02-11T01:44:41;102166.53;;;19.82;36.40
77281;BME280;66339;47.262;17.144;2023-02-11T01:47:14;102170.28;;;19.81;36.35
77281;BME280;66339;47.262;17.144;2023-02-11T01:50:05;102168.59;;;19.80;36.30
77281;BME280;66339;47.262;17.144;2023-02-11T01:52:38;102165.34;;;19.78;36.34
77281;BME280;66339;47.262;17.144;2023-02-11T01:55:09;102164.53;;;19.77;36.33
77281;BME280;66339;47.262;17.144;2023-02-11T01:58:02;102174.47;;;19.77;36.30
77281;BME280;66339;47.262;17.144;2023-02-11T02:00:37;102174.94;;;19.74;36.33
77281;BME280;66339;47.262;17.144;2023-02-11T02:03:14;102181.12;;;19.74;36.26
77281;BME280;66339;47.262;17.144;2023-02-11T02:06:01;102175.94;;;19.73;36.28
77281;BME280;66339;47.262;17.144;2023-02-11T02:08:55;102171.06;;;19.70;36.27
77281;BME280;66339;47.262;17.144;2023-02-11T02:11:27;102170.25;;;19.69;36.31
77281;BME280;66339;47.262;17.144;2023-02-11T02:14:02;102168.59;;;19.68;36.22
77281;BME280;66339;47.262;17.144;2023-02-11T02:16:33;102160.78;;;19.67;36.22
77281;BME280;66339;47.262;17.144;2023-02-11T02:24:58;102169.31;;;19.64;36.18
77281;BME280;66339;47.262;17.144;2023-02-11T02:30:57;102164.34;;;19.60;36.23
77281;BME280;66339;47.262;17.144;2023-02-11T02:40:37;102149.75;;;19.56;36.18
77281;BME280;66339;47.262;17.144;2023-02-11T02:49:28;102140.78;;;19.51;36.18
77281;BME280;66339;47.262;17.144;2023-02-11T03:10:54;102131.44;;;19.42;36.21
77281;BME280;66339;47.262;17.144;2023-02-11T03:13:29;102115.56;;;19.40;36.23
77281;BME280;66339;47.262;17.144;2023-02-11T03:16:03;102119.31;;;19.39;36.19
77281;BME280;66339;47.262;17.144;2023-02-11T03:18:41;102119.31;;;19.39;36.15
77281;BME280;66339;47.262;17.144;2023-02-11T03:21:15;102110.66;;;19.37;36.18
77281;BME280;66339;47.262;17.144;2023-02-11T03:30:32;102107.41;;;19.35;36.14
77281;BME280;66339;47.262;17.144;2023-02-11T03:42:34;102101.31;;;19.28;36.19
77281;BME280;66339;47.262;17.144;2023-02-11T03:45:09;102106.69;;;19.28;36.10
77281;BME280;66339;47.262;17.144;2023-02-11T03:54:35;102082.44;;;19.23;36.14
77281;BME280;66339;47.262;17.144;2023-02-11T03:57:06;102081.59;;;19.22;36.16
77281;BME280;66339;47.262;17.144;2023-02-11T03:59:56;102077.06;;;19.23;36.11
77281;BME280;66339;47.262;17.144;2023-02-11T04:02:30;102078.31;;;19.20;36.17
77281;BME280;66339;47.262;17.144;2023-02-11T04:08:32;102068.88;;;19.18;36.11
77281;BME280;66339;47.262;17.144;2023-02-11T04:14:10;102062.31;;;19.13;36.15
77281;BME280;66339;47.262;17.144;2023-02-11T04:26:32;102048.81;;;19.08;36.13
77281;BME280;66339;47.262;17.144;2023-02-11T04:32:21;102056.28;;;19.06;36.11
77281;BME280;66339;47.262;17.144;2023-02-11T04:34:53;102049.25;;;19.05;36.06
77281;BME280;66339;47.262;17.144;2023-02-11T04:37:24;102040.63;;;19.03;36.10
77281;BME280;66339;47.262;17.144;2023-02-11T04:40:03;102042.50;;;19.03;36.13
77281;BME280;66339;47.262;17.144;2023-02-11T04:45:55;102025.59;;;19.02;36.14
77281;BME280;66339;47.262;17.144;2023-02-11T04:48:29;102031.44;;;18.99;36.13
77281;BME280;66339;47.262;17.144;2023-02-11T04:51:15;102034.09;;;18.99;36.13
77281;BME280;66339;47.262;17.144;2023-02-11T04:53:43;102031.44;;;18.99;36.11
77281;BME280;66339;47.262;17.144;2023-02-11T04:56:10;102034.09;;;18.99;36.13
77281;BME280;66339;47.262;17.144;2023-02-11T04:58:41;102027.13;;;18.98;36.12
77281;BME280;66339;47.262;17.144;2023-02-11T05:01:10;102021.75;;;18.98;36.24
77281;BME280;66339;47.262;17.144;2023-02-11T05:03:44;102027.13;;;18.98;36.06
77281;BME280;66339;47.262;17.144;2023-02-11T05:06:15;102022.78;;;18.97;35.92
77281;BME280;66339;47.262;17.144;2023-02-11T05:08:49;102034.31;;;18.98;36.00
77281;BME280;66339;47.262;17.144;2023-02-11T05:14:32;102036.19;;;18.97;36.21
77281;BME280;66339;47.262;17.144;2023-02-11T05:17:19;102024.88;;;18.95;36.15
77281;BME280;66339;47.262;17.144;2023-02-11T05:19:48;102032.12;;;18.95;36.21
77281;BME280;66339;47.262;17.144;2023-02-11T05:22:20;102032.12;;;18.95;36.06
77281;BME280;66339;47.262;17.144;2023-02-11T05:24:48;102028.03;;;18.92;32.47
77281;BME280;66339;47.262;17.144;2023-02-11T05:27:16;102017.22;;;18.69;31.41
77281;BME280;66339;47.262;17.144;2023-02-11T05:29:48;102018.44;;;18.54;31.39
77281;BME280;66339;47.262;17.144;2023-02-11T05:32:16;102019.69;;;18.40;30.79
77281;BME280;66339;47.262;17.144;2023-02-11T05:34:44;102013.91;;;18.25;29.39
77281;BME280;66339;47.262;17.144;2023-02-11T05:37:37;102016.41;;;18.08;31.91
77281;BME280;66339;47.262;17.144;2023-02-11T05:40:05;102020.47;;;18.10;33.60
77281;BME280;66339;47.262;17.144;2023-02-11T05:42:32;102030.28;;;18.17;34.25
77281;BME280;66339;47.262;17.144;2023-02-11T05:45:05;102026.50;;;18.24;34.09
77281;BME280;66339;47.262;17.144;2023-02-11T05:47:37;102023.72;;;18.31;34.46
77281;BME280;66339;47.262;17.144;2023-02-11T05:50:08;102031.66;;;18.37;34.75
77281;BME280;66339;47.262;17.144;2023-02-11T05:52:41;102026.44;;;18.43;34.81
77281;BME280;66339;47.262;17.144;2023-02-11T05:55:08;102026.81;;;18.46;35.25
77281;BME280;66339;47.262;17.144;2023-02-11T05:57:39;102034.41;;;18.49;35.29
77281;BME280;66339;47.262;17.144;2023-02-11T06:00:14;102024.84;;;18.53;34.76
77281;BME280;66339;47.262;17.144;2023-02-11T06:02:45;102038.84;;;18.55;34.90
77281;BME280;66339;47.262;17.144;2023-02-11T06:05:16;102034.88;;;18.58;35.37
77281;BME280;66339;47.262;17.144;2023-02-11T06:07:43;102027.22;;;18.61;35.43
77281;BME280;66339;47.262;17.144;2023-02-11T06:10:11;102026.75;;;18.64;35.48
77281;BME280;66339;47.262;17.144;2023-02-11T06:12:38;102022.81;;;18.67;35.29
77281;BME280;66339;47.262;17.144;2023-02-11T06:15:07;102023.22;;;18.71;35.46
77281;BME280;66339;47.262;17.144;2023-02-11T06:17:38;102023.34;;;18.76;35.67
77281;BME280;66339;47.262;17.144;2023-02-11T06:20:07;102021.22;;;18.78;36.39
77281;BME280;66339;47.262;17.144;2023-02-11T06:22:36;102024.06;;;18.83;36.77
77281;BME280;66339;47.262;17.144;2023-02-11T06:25:07;102023.56;;;18.86;36.98
77281;BME280;66339;47.262;17.144;2023-02-11T06:27:44;102026.84;;;18.88;37.21
77281;BME280;66339;47.262;17.144;2023-02-11T06:30:15;102022.06;;;18.90;37.85
77281;BME280;66339;47.262;17.144;2023-02-11T06:32:46;102015.19;;;18.94;37.89
77281;BME280;66339;47.262;17.144;2023-02-11T06:35:14;102014.72;;;18.97;37.95
77281;BME280;66339;47.262;17.144;2023-02-11T06:37:41;102018.22;;;18.98;37.96
77281;BME280;66339;47.262;17.144;2023-02-11T06:40:10;102021.16;;;18.96;38.00
77281;BME280;66339;47.262;17.144;2023-02-11T06:42:37;102021.75;;;18.98;38.15
77281;BME280;66339;47.262;17.144;2023-02-11T06:45:07;102020.91;;;18.98;38.68
77281;BME280;66339;47.262;17.144;2023-02-11T06:47:34;102014.16;;;18.95;38.37
77281;BME280;66339;47.262;17.144;2023-02-11T06:50:03;102018.72;;;18.95;38.55
77281;BME280;66339;47.262;17.144;2023-02-11T06:52:34;102024.28;;;18.93;38.49
77281;BME280;66339;47.262;17.144;2023-02-11T06:55:01;102026.97;;;18.93;38.21
77281;BME280;66339;47.262;17.144;2023-02-11T06:57:29;102023.94;;;18.89;38.58
77281;BME280;66339;47.262;17.144;2023-02-11T06:59:56;102018.34;;;18.91;37.51
77281;BME280;66339;47.262;17.144;2023-02-11T07:02:24;102020.56;;;18.94;37.66
77281;BME280;66339;47.262;17.144;2023-02-11T07:04:53;102015.19;;;18.94;38.08
77281;BME280;66339;47.262;17.144;2023-02-11T07:07:21;102019.28;;;18.97;38.18
77281;BME280;66339;47.262;17.144;2023-02-11T07:09:53;102019.63;;;19.00;38.28
77281;BME280;66339;47.262;17.144;2023-02-11T07:12:23;102016.50;;;19.03;38.22
77281;BME280;66339;47.262;17.144;2023-02-11T07:14:50;102009.03;;;19.05;37.58
77281;BME280;66339;47.262;17.144;2023-02-11T07:17:20;102006.72;;;19.09;37.56
77281;BME280;66339;47.262;17.144;2023-02-11T07:19:47;102011.84;;;19.10;37.58
77281;BME280;66339;47.262;17.144;2023-02-11T07:22:15;102008.69;;;19.13;37.60
77281;BME280;66339;47.262;17.144;2023-02-11T07:24:45;102007.41;;;19.16;37.51
77281;BME280;66339;47.262;17.144;2023-02-11T07:27:14;102008.22;;;19.17;37.62
77281;BME280;66339;47.262;17.144;2023-02-11T07:29:44;102011.06;;;19.22;37.63
77281;BME280;66339;47.262;17.144;2023-02-11T07:32:13;101999.84;;;19.25;37.67
77281;BME280;66339;47.262;17.144;2023-02-11T07:34:44;101998.31;;;19.29;37.56
77281;BME280;66339;47.262;17.144;2023-02-11T07:37:14;102000.53;;;19.32;37.57
77281;BME280;66339;47.262;17.144;2023-02-11T07:39:44;101994.94;;;19.33;37.54
77281;BME280;66339;47.262;17.144;2023-02-11T07:42:13;101995.28;;;19.37;37.57
77281;BME280;66339;47.262;17.144;2023-02-11T07:44:43;101986.75;;;19.40;37.79
77281;BME280;66339;47.262;17.144;2023-02-11T07:49:55;101989.56;;;19.45;38.39
77281;BME280;66339;47.262;17.144;2023-02-11T07:52:23;101989.91;;;19.49;38.66
77281;BME280;66339;47.262;17.144;2023-02-11T07:57:29;101986.84;;;19.57;38.79
77281;BME280;66339;47.262;17.144;2023-02-11T07:59:58;101990.94;;;19.59;38.70
77281;BME280;66339;47.262;17.144;2023-02-11T08:02:28;101985.16;;;19.62;39.00
77281;BME280;66339;47.262;17.144;2023-02-11T08:04:59;101989.22;;;19.65;39.02
77281;BME280;66339;47.262;17.144;2023-02-11T08:07:26;101983.63;;;19.67;39.16
77281;BME280;66339;47.262;17.144;2023-02-11T08:10:00;101986.41;;;19.72;39.02
77281;BME280;66339;47.262;17.144;2023-02-11T08:12:27;101977.28;;;19.73;38.95
77281;BME280;66339;47.262;17.144;2023-02-11T08:14:54;101979.50;;;19.76;38.84
77281;BME280;66339;47.262;17.144;2023-02-11T08:17:21;101973.66;;;19.79;38.84
77281;BME280;66339;47.262;17.144;2023-02-11T08:19:48;101975.28;;;19.80;39.12
77281;BME280;66339;47.262;17.144;2023-02-11T08:22:18;101976.94;;;19.81;38.85
77281;BME280;66339;47.262;17.144;2023-02-11T08:24:46;101988.00;;;19.84;38.94
77281;BME280;66339;47.262;17.144;2023-02-11T08:27:22;101988.84;;;19.85;38.86
77281;BME280;66339;47.262;17.144;2023-02-11T08:29:53;101984.62;;;19.89;38.79
77281;BME280;66339;47.262;17.144;2023-02-11T08:32:24;101979.81;;;19.91;38.78
77281;BME280;66339;47.262;17.144;2023-02-11T08:34:52;101980.88;;;19.90;38.61
77281;BME280;66339;47.262;17.144;2023-02-11T08:37:19;101984.97;;;19.93;38.74
77281;BME280;66339;47.262;17.144;2023-02-11T08:39:53;101979.59;;;19.93;38.77
77281;BME280;66339;47.262;17.144;2023-02-11T08:42:20;101984.47;;;19.96;38.77
77281;BME280;66339;47.262;17.144;2023-02-11T08:44:47;101981.22;;;19.94;38.16
77281;BME280;66339;47.262;17.144;2023-02-11T08:47:17;101973.38;;;19.92;37.18
77281;BME280;66339;47.262;17.144;2023-02-11T08:49:47;101976.66;;;19.94;36.06
77281;BME280;66339;47.262;17.144;2023-02-11T08:52:18;101979.91;;;19.96;37.47
77281;BME280;66339;47.262;17.144;2023-02-11T08:54:45;101982.94;;;20.00;38.10
77281;BME280;66339;47.262;17.144;2023-02-11T08:57:15;101980.84;;;20.02;38.17
77281;BME280;66339;47.262;17.144;2023-02-11T08:59:45;101980.59;;;20.03;38.17
77281;BME280;66339;47.262;17.144;2023-02-11T09:02:13;101974.75;;;20.06;38.20
77281;BME280;66339;47.262;17.144;2023-02-11T09:04:40;101976.63;;;20.06;38.20
77281;BME280;66339;47.262;17.144;2023-02-11T09:07:07;101980.13;;;20.06;38.13
77281;BME280;66339;47.262;17.144;2023-02-11T09:09:34;101967.28;;;20.08;38.07
77281;BME280;66339;47.262;17.144;2023-02-11T09:12:03;101978.03;;;20.08;38.14
77281;BME280;66339;47.262;17.144;2023-02-11T09:14:32;101971.34;;;20.11;37.98
77281;BME280;66339;47.262;17.144;2023-02-11T09:17:00;101957.91;;;20.11;37.97
77281;BME280;66339;47.262;17.144;2023-02-11T09:19:27;101957.69;;;20.13;37.89
77281;BME280;66339;47.262;17.144;2023-02-11T09:21:58;101963.06;;;20.13;37.81
77281;BME280;66339;47.262;17.144;2023-02-11T09:24:28;101975.44;;;20.14;37.83
77281;BME280;66339;47.262;17.144;2023-02-11T09:26:59;101970.06;;;20.14;37.77
77281;BME280;66339;47.262;17.144;2023-02-11T09:29:26;101964.44;;;20.15;37.36
77281;BME280;66339;47.262;17.144;2023-02-11T09:31:57;101963.88;;;20.13;37.74
77281;BME280;66339;47.262;17.144;2023-02-11T09:34:26;101966.91;;;20.17;37.85
77281;BME280;66339;47.262;17.144;2023-02-11T09:36:54;101957.69;;;20.13;38.70
77281;BME280;66339;47.262;17.144;2023-02-11T09:39:21;101959.31;;;20.14;38.79
77281;BME280;66339;47.262;17.144;2023-02-11T09:42:14;101950.78;;;20.17;38.23
77281;BME280;66339;47.262;17.144;2023-02-11T09:44:46;101947.28;;;20.16;37.93
77281;BME280;66339;47.262;17.144;2023-02-11T09:50:39;101934.87;;;20.15;39.56
77281;BME280;66339;47.262;17.144;2023-02-11T09:53:32;101927.28;;;20.12;39.49
77281;BME280;66339;47.262;17.144;2023-02-11T09:58:41;101913.84;;;20.12;39.02
77281;BME280;66339;47.262;17.144;2023-02-11T10:01:41;101917.94;;;20.15;38.77
77281;BME280;66339;47.262;17.144;2023-02-11T10:07:44;101914.91;;;20.90;38.57
77281;BME280;66339;47.262;17.144;2023-02-11T10:22:10;101901.69;;;20.38;39.68
77281;BME280;66339;47.262;17.144;2023-02-11T10:24:50;101885.56;;;20.38;39.27
77281;BME280;66339;47.262;17.144;2023-02-11T10:27:20;101882.66;;;20.40;39.19
77281;BME280;66339;47.262;17.144;2023-02-11T10:30:36;101900.16;;;20.42;39.52
77281;BME280;66339;47.262;17.144;2023-02-11T10:35:32;101897.25;;;20.44;39.40
77281;BME280;66339;47.262;17.144;2023-02-11T10:37:59;101896.16;;;20.45;38.89
77281;BME280;66339;47.262;17.144;2023-02-11T10:40:28;101887.84;;;20.46;38.89
77281;BME280;66339;47.262;17.144;2023-02-11T10:43:18;101880.38;;;20.48;38.89
77281;BME280;66339;47.262;17.144;2023-02-11T10:45:54;101884.22;;;20.52;39.09
77281;BME280;66339;47.262;17.144;2023-02-11T10:48:45;101878.38;;;20.55;39.26
77281;BME280;66339;47.262;17.144;2023-02-11T10:53:44;101873.63;;;20.63;39.86
77281;BME280;66339;47.262;17.144;2023-02-11T10:56:45;101865.06;;;20.66;39.78
77281;BME280;66339;47.262;17.144;2023-02-11T10:59:31;101862.69;;;20.69;39.84
77281;BME280;66339;47.262;17.144;2023-02-11T11:02:25;101857.06;;;20.71;40.10
77281;BME280;66339;47.262;17.144;2023-02-11T11:05:22;101855.50;;;20.75;40.34
77281;BME280;66339;47.262;17.144;2023-02-11T11:08:11;101853.66;;;20.75;40.49
77281;BME280;66339;47.262;17.144;2023-02-11T11:10:42;101842.38;;;20.78;40.55
77281;BME280;66339;47.262;17.144;2023-02-11T11:13:33;101856.69;;;20.79;40.76
77281;BME280;66339;47.262;17.144;2023-02-11T11:18:39;101855.59;;;20.80;40.96
77281;BME280;66339;47.262;17.144;2023-02-11T11:21:13;101848.59;;;20.79;41.01
77281;BME280;66339;47.262;17.144;2023-02-11T11:23:52;101836.19;;;20.78;41.12
77281;BME280;66339;47.262;17.144;2023-02-11T11:26:21;101849.09;;;20.76;41.12
77281;BME280;66339;47.262;17.144;2023-02-11T11:28:50;101841.03;;;20.76;41.00
77281;BME280;66339;47.262;17.144;2023-02-11T11:31:21;101838.34;;;20.76;41.05
77281;BME280;66339;47.262;17.144;2023-02-11T11:33:53;101824.31;;;20.74;41.11
77281;BME280;66339;47.262;17.144;2023-02-11T11:36:24;101828.06;;;20.73;41.61
77281;BME280;66339;47.262;17.144;2023-02-11T11:39:01;101814.62;;;20.73;42.41
77281;BME280;66339;47.262;17.144;2023-02-11T11:41:34;101815.44;;;20.73;42.69
77281;BME280;66339;47.262;17.144;2023-02-11T11:44:38;101802.81;;;20.74;42.96
77281;BME280;66339;47.262;17.144;2023-02-11T11:49:51;101806.06;;;20.76;43.13
77281;BME280;66339;47.262;17.144;2023-02-11T11:55:16;101794.00;;;20.78;43.30
77281;BME280;66339;47.262;17.144;2023-02-11T11:57:44;101794.00;;;20.78;43.31
77281;BME280;66339;47.262;17.144;2023-02-11T12:00:20;101789.44;;;20.79;43.03
77281;BME280;66339;47.262;17.144;2023-02-11T12:10:57;101770.31;;;20.75;42.73
77281;BME280;66339;47.262;17.144;2023-02-11T12:16:27;101760.59;;;20.74;42.77
77281;BME280;66339;47.262;17.144;2023-02-11T12:27:34;101721.00;;;20.70;42.88
77281;BME280;66339;47.262;17.144;2023-02-11T12:36:00;101709.94;;;20.66;43.02
77281;BME280;66339;47.262;17.144;2023-02-11T12:38:51;101702.94;;;20.65;42.88
77281;BME280;66339;47.262;17.144;2023-02-11T12:41:31;101693.28;;;20.64;43.03
77281;BME280;66339;47.262;17.144;2023-02-11T12:44:11;101692.19;;;20.65;42.82
77281;BME280;66339;47.262;17.144;2023-02-11T12:55:42;101685.84;;;20.71;42.59
77281;BME280;66339;47.262;17.144;2023-02-11T12:58:20;101680.75;;;20.75;42.66
77281;BME280;66339;47.262;17.144;2023-02-11T13:01:08;101684.81;;;20.77;42.57
77281;BME280;66339;47.262;17.144;2023-02-11T13:03:42;101687.28;;;20.79;42.41
77281;BME280;66339;47.262;17.144;2023-02-11T13:06:14;101682.69;;;20.79;42.33
77281;BME280;66339;47.262;17.144;2023-02-11T13:08:53;101675.19;;;20.81;42.24
77281;BME280;66339;47.262;17.144;2023-02-11T13:16:45;101678.69;;;20.82;41.90
77281;BME280;66339;47.262;17.144;2023-02-11T13:19:39;101671.94;;;20.79;41.72
77281;BME280;66339;47.262;17.144;2023-02-11T13:22:17;101681.06;;;20.78;41.56
77281;BME280;66339;47.262;17.144;2023-02-11T13:28:04;101672.12;;;20.73;41.16
77281;BME280;66339;47.262;17.144;2023-02-11T13:30:40;101663.47;;;20.71;41.10
77281;BME280;66339;47.262;17.144;2023-02-11T13:33:35;101668.06;;;20.70;40.93
77281;BME280;66339;47.262;17.144;2023-02-11T13:38:35;101666.12;;;20.66;41.04
77281;BME280;66339;47.262;17.144;2023-02-11T13:41:31;101663.69;;;20.64;40.96
77281;BME280;66339;47.262;17.144;2023-02-11T13:46:53;101656.94;;;20.62;41.06
77281;BME280;66339;47.262;17.144;2023-02-11T13:49:36;101648.31;;;20.59;41.20
77281;BME280;66339;47.262;17.144;2023-02-11T13:52:15;101649.38;;;20.58;41.32
77281;BME280;66339;47.262;17.144;2023-02-11T13:54:49;101650.44;;;20.57;41.01
77281;BME280;66339;47.262;17.144;2023-02-11T13:57:21;101644.50;;;20.55;40.95
77281;BME280;66339;47.262;17.144;2023-02-11T14:00:00;101646.63;;;20.53;40.91
77281;BME280;66339;47.262;17.144;2023-02-11T14:02:38;101634.25;;;20.52;40.91
77281;BME280;66339;47.262;17.144;2023-02-11T14:11:02;101634.16;;;20.47;41.09
77281;BME280;66339;47.262;17.144;2023-02-11T14:13:36;101641.66;;;20.45;41.00
77281;BME280;66339;47.262;17.144;2023-02-11T14:16:22;101641.09;;;20.43;40.89
77281;BME280;66339;47.262;17.144;2023-02-11T14:19:07;101649.41;;;20.42;40.56
77281;BME280;66339;47.262;17.144;2023-02-11T14:21:40;101648.59;;;20.41;40.53
77281;BME280;66339;47.262;17.144;2023-02-11T14:26:57;101668.78;;;20.44;40.88
77281;BME280;66339;47.262;17.144;2023-02-11T14:32:38;101670.66;;;20.43;41.23
77281;BME280;66339;47.262;17.144;2023-02-11T14:43:27;101677.09;;;20.42;41.35
77281;BME280;66339;47.262;17.144;2023-02-11T14:46:08;101677.09;;;20.42;41.40
77281;BME280;66339;47.262;17.144;2023-02-11T14:48:40;101666.34;;;20.42;41.50
77281;BME280;66339;47.262;17.144;2023-02-11T14:51:18;101665.22;;;20.38;42.06
77281;BME280;66339;47.262;17.144;2023-02-11T14:53:49;101668.97;;;20.37;41.88
77281;BME280;66339;47.262;17.144;2023-02-11T14:56:27;101651.22;;;20.36;41.52
77281;BME280;66339;47.262;17.144;2023-02-11T14:58:58;101661.41;;;20.34;41.49
77281;BME280;66339;47.262;17.144;2023-02-11T15:01:38;101673.22;;;20.33;41.28
77281;BME280;66339;47.262;17.144;2023-02-11T15:04:24;101683.38;;;20.31;41.27
77281;BME280;66339;47.262;17.144;2023-02-11T15:06:53;101673.69;;;20.30;41.22
77281;BME280;66339;47.262;17.144;2023-02-11T15:09:36;101671.28;;;20.28;41.11
77281;BME280;66339;47.262;17.144;2023-02-11T15:12:25;101684.94;;;20.27;41.12
77281;BME280;66339;47.262;17.144;2023-02-11T15:14:54;101682.50;;;20.25;41.00
77281;BME280;66339;47.262;17.144;2023-02-11T15:17:24;101679.25;;;20.23;40.93
77281;BME280;66339;47.262;17.144;2023-02-11T15:19:58;101682.19;;;20.22;41.05
77281;BME280;66339;47.262;17.144;2023-02-11T15:22:34;101674.88;;;20.17;41.36
77281;BME280;66339;47.262;17.144;2023-02-11T15:25:12;101668.19;;;20.20;41.10
77281;BME280;66339;47.262;17.144;2023-02-11T15:27:46;101656.87;;;20.18;41.08
77281;BME280;66339;47.262;17.144;2023-02-11T15:32:57;101649.31;;;20.15;40.94
77281;BME280;66339;47.262;17.144;2023-02-11T15:35:32;101640.72;;;20.13;40.88
77281;BME280;66339;47.262;17.144;2023-02-11T15:38:08;101613.00;;;20.12;40.67
77281;BME280;66339;47.262;17.144;2023-02-11T15:40:50;101612.19;;;20.11;40.86
77281;BME280;66339;47.262;17.144;2023-02-11T15:43:25;101610.56;;;20.10;40.99
77281;BME280;66339;47.262;17.144;2023-02-11T15:46:10;101604.41;;;20.10;40.98
77281;BME280;66339;47.262;17.144;2023-02-11T15:48:45;101606.28;;;20.09;40.92
77281;BME280;66339;47.262;17.144;2023-02-11T15:53:47;101591.22;;;20.08;41.07
77281;BME280;66339;47.262;17.144;2023-02-11T15:56:19;101589.59;;;20.07;41.01
77281;BME280;66339;47.262;17.144;2023-02-11T15:58:47;101594.94;;;20.07;40.94
77281;BME280;66339;47.262;17.144;2023-02-11T16:01:15;101604.06;;;20.06;40.75
77281;BME280;66339;47.262;17.144;2023-02-11T16:03:47;101597.09;;;20.05;41.02
77281;BME280;66339;47.262;17.144;2023-02-11T16:06:25;101585.53;;;20.05;40.78
77281;BME280;66339;47.262;17.144;2023-02-11T16:09:04;101595.47;;;20.04;40.71
77281;BME280;66339;47.262;17.144;2023-02-11T16:17:35;101607.19;;;19.98;40.76
77281;BME280;66339;47.262;17.144;2023-02-11T16:20:00;101625.41;;;19.96;40.98
77281;BME280;66339;47.262;17.144;2023-02-11T16:22:29;101620.88;;;19.97;40.68
77281;BME280;66339;47.262;17.144;2023-02-11T16:24:58;101615.75;;;19.95;40.74
77281;BME280;66339;47.262;17.144;2023-02-11T16:30:00;101615.19;;;19.93;41.11
77281;BME280;66339;47.262;17.144;2023-02-11T16:32:33;101608.16;;;19.92;40.78
77281;BME280;66339;47.262;17.144;2023-02-11T16:35:06;101615.19;;;19.93;40.54
77281;BME280;66339;47.262;17.144;2023-02-11T16:37:40;101622.66;;;19.91;40.72
77281;BME280;66339;47.262;17.144;2023-02-11T16:40:11;101609.25;;;19.91;40.66
77281;BME280;66339;47.262;17.144;2023-02-11T16:42:41;101615.69;;;19.90;41.04
77281;BME280;66339;47.262;17.144;2023-02-11T16:45:16;101616.22;;;19.92;40.63
77281;BME280;66339;47.262;17.144;2023-02-11T16:50:58;101627.06;;;19.97;42.06